createdAt,value
2017-07-14T00:01:35.269Z,5.10
2017-07-14T00:04:04.360Z,5.43
2017-07-14T00:06:33.403Z,7.13
2017-07-14T00:09:02.475Z,7.13
2017-07-14T00:11:31.544Z,8.80
2017-07-14T00:14:00.615Z,5.83
2017-07-14T00:16:29.681Z,6.07
2017-07-14T00:18:58.737Z,5.70
2017-07-14T00:21:27.820Z,9.00
2017-07-14T00:23:56.863Z,5.43
2017-07-14T00:26:26.672Z,7.70
2017-07-14T00:28:55.785Z,6.10
2017-07-14T00:31:24.868Z,7.93
2017-07-14T00:33:53.923Z,6.23
2017-07-14T00:36:22.995Z,9.10
2017-07-14T00:38:52.749Z,7.97
2017-07-14T00:41:21.819Z,7.20
2017-07-14T00:43:50.866Z,5.73
2017-07-14T00:46:19.908Z,9.63
2017-07-14T00:48:49.006Z,7.80
2017-07-14T00:51:18.045Z,6.67
2017-07-14T00:53:47.211Z,6.10
2017-07-14T00:56:16.281Z,7.80
2017-07-14T00:58:45.384Z,6.27
2017-07-14T01:01:14.561Z,5.30
2017-07-14T01:03:43.619Z,9.30
2017-07-14T01:06:13.437Z,6.47
2017-07-14T01:08:42.509Z,7.07
2017-07-14T01:11:12.352Z,7.17
2017-07-14T01:13:42.160Z,6.13
2017-07-14T01:16:11.227Z,9.20
2017-07-14T01:18:41.060Z,6.67
2017-07-14T01:21:10.157Z,6.93
2017-07-14T01:23:39.961Z,7.67
2017-07-14T01:26:09.788Z,11.87
2017-07-14T01:28:39.155Z,11.13
2017-07-14T01:31:08.208Z,8.20
2017-07-14T01:33:37.255Z,6.30
2017-07-14T01:36:07.118Z,10.20
2017-07-14T01:38:36.177Z,7.00
2017-07-14T01:41:06.797Z,7.40
2017-07-14T01:43:36.661Z,7.80
2017-07-14T01:46:05.761Z,8.87
2017-07-14T01:48:34.844Z,9.40
2017-07-14T01:51:03.961Z,7.50
2017-07-14T01:53:33.024Z,7.10
2017-07-14T01:56:02.195Z,7.00
2017-07-14T01:58:31.244Z,10.13
2017-07-14T02:01:00.314Z,7.67
2017-07-14T02:03:29.393Z,7.43
2017-07-14T02:05:59.200Z,12.60
2017-07-14T02:08:28.277Z,9.83
2017-07-14T02:10:57.697Z,10.37
2017-07-14T02:13:26.744Z,7.90
2017-07-14T02:15:55.824Z,7.97
2017-07-14T02:18:24.893Z,11.97
2017-07-14T02:20:53.965Z,10.93
2017-07-14T02:23:23.786Z,8.10
2017-07-14T02:25:53.720Z,8.27
2017-07-14T02:28:22.800Z,9.10
2017-07-14T02:30:52.661Z,8.87
2017-07-14T02:33:21.724Z,10.43
2017-07-14T02:35:50.787Z,12.67
2017-07-14T02:38:19.858Z,7.10
2017-07-14T02:40:48.918Z,8.70
2017-07-14T02:43:17.988Z,8.40
2017-07-14T02:45:47.816Z,8.30
2017-07-14T02:48:16.932Z,8.80
2017-07-14T02:50:46.004Z,12.70
2017-07-14T02:53:15.101Z,10.10
2017-07-14T02:55:44.905Z,9.57
2017-07-14T02:58:13.984Z,9.00
2017-07-14T03:00:43.847Z,9.67
2017-07-14T03:03:12.985Z,8.63
2017-07-14T03:05:42.048Z,8.90
2017-07-14T03:08:11.128Z,9.80
2017-07-14T03:10:40.201Z,8.10
2017-07-14T03:13:09.333Z,8.13
2017-07-14T03:15:38.408Z,10.57
2017-07-14T03:18:07.487Z,8.77
2017-07-14T03:20:37.935Z,10.63
2017-07-14T03:23:07.011Z,8.87
2017-07-14T03:25:36.077Z,12.20
2017-07-14T03:28:05.186Z,11.37
2017-07-14T03:30:34.256Z,10.70
2017-07-14T03:33:03.350Z,8.50
2017-07-14T03:35:32.428Z,8.50
2017-07-14T03:38:01.486Z,9.17
2017-07-14T03:40:30.564Z,9.97
2017-07-14T03:43:00.399Z,9.50
2017-07-14T03:45:29.460Z,10.47
2017-07-14T03:47:58.521Z,10.47
2017-07-14T03:50:27.841Z,10.43
2017-07-14T03:52:56.884Z,13.63
2017-07-14T03:55:25.965Z,11.23
2017-07-14T03:57:56.837Z,10.40
2017-07-14T04:00:26.015Z,9.17
2017-07-14T04:02:55.081Z,9.87
2017-07-14T04:05:24.941Z,8.67
2017-07-14T04:07:53.962Z,10.23
2017-07-14T04:10:23.106Z,9.97
2017-07-14T04:12:52.177Z,8.70
2017-07-14T04:15:22.026Z,11.33
2017-07-14T04:17:51.067Z,8.57
2017-07-14T04:20:20.099Z,9.67
2017-07-14T04:22:49.177Z,10.67
2017-07-14T04:25:19.078Z,9.07
2017-07-14T04:27:48.123Z,9.63
2017-07-14T04:30:17.408Z,9.83
2017-07-14T04:32:46.536Z,9.23
2017-07-14T04:35:15.605Z,8.27
2017-07-14T04:37:44.688Z,12.73
2017-07-14T04:40:13.816Z,8.07
2017-07-14T04:42:42.858Z,8.40
2017-07-14T04:45:11.940Z,8.83
2017-07-14T04:47:40.981Z,8.20
2017-07-14T04:50:10.055Z,9.60
2017-07-14T04:52:39.127Z,10.17
2017-07-14T04:55:08.196Z,8.00
2017-07-14T04:57:37.256Z,9.83
2017-07-14T05:00:06.353Z,10.67
2017-07-14T05:02:35.411Z,8.30
2017-07-14T05:05:04.488Z,10.40
2017-07-14T05:07:35.227Z,7.80
2017-07-14T05:10:04.349Z,6.93
2017-07-14T05:12:33.382Z,7.40
2017-07-14T05:15:02.428Z,8.40
2017-07-14T05:17:31.501Z,8.63
2017-07-14T05:20:00.569Z,8.33
2017-07-14T05:22:29.625Z,6.83
2017-07-14T05:24:59.717Z,7.63
2017-07-14T05:27:28.765Z,7.70
2017-07-14T05:29:57.825Z,8.20
2017-07-14T05:32:26.878Z,10.27
2017-07-14T05:34:55.964Z,7.43
2017-07-14T05:37:25.020Z,12.30
2017-07-14T05:39:54.864Z,7.33
2017-07-14T05:42:23.937Z,13.93
2017-07-14T05:44:53.758Z,7.20
2017-07-14T05:47:22.890Z,7.17
2017-07-14T05:49:52.197Z,8.07
2017-07-14T05:52:21.277Z,7.80
2017-07-14T05:54:50.328Z,7.23
2017-07-14T05:57:20.173Z,7.53
2017-07-14T05:59:49.220Z,10.10
2017-07-14T06:02:19.677Z,8.30
2017-07-14T06:04:48.736Z,8.63
2017-07-14T06:07:17.795Z,7.07
2017-07-14T06:09:46.847Z,7.63
2017-07-14T06:12:16.233Z,9.80
2017-07-14T06:14:45.296Z,9.53
2017-07-14T06:17:14.360Z,7.93
2017-07-14T06:19:43.483Z,8.57
2017-07-14T06:22:12.556Z,14.50
2017-07-14T06:24:41.627Z,7.70
2017-07-14T06:27:11.017Z,8.43
2017-07-14T06:29:40.104Z,8.57
2017-07-14T06:32:09.211Z,11.83
2017-07-14T06:34:38.259Z,8.70
2017-07-14T06:37:07.433Z,8.07
2017-07-14T06:39:36.794Z,6.70
2017-07-14T06:42:05.916Z,6.73
2017-07-14T06:44:34.998Z,8.00
2017-07-14T06:47:04.041Z,8.20
2017-07-14T06:49:33.088Z,10.83
2017-07-14T06:52:02.159Z,10.53
2017-07-14T06:54:31.247Z,8.13
2017-07-14T06:57:00.523Z,14.33
2017-07-14T06:59:29.611Z,11.83
2017-07-14T07:01:58.696Z,11.30
2017-07-14T07:04:27.796Z,12.43
2017-07-14T07:06:56.876Z,9.77
2017-07-14T07:09:25.956Z,11.77
2017-07-14T07:11:55.014Z,12.93
2017-07-14T07:14:24.068Z,17.13
2017-07-14T07:16:53.146Z,12.27
2017-07-14T07:19:22.209Z,15.00
2017-07-14T07:21:51.249Z,16.27
2017-07-14T07:24:20.303Z,11.67
2017-07-14T07:26:49.383Z,13.93
2017-07-14T07:29:18.428Z,17.47
2017-07-14T07:31:47.519Z,14.33
2017-07-14T07:34:16.580Z,15.53
2017-07-14T07:36:45.626Z,13.10
2017-07-14T07:39:14.879Z,13.20
2017-07-14T07:41:43.997Z,9.97
2017-07-14T07:44:13.095Z,11.70
2017-07-14T07:46:48.547Z,13.47
2017-07-14T07:49:22.998Z,15.10
2017-07-14T07:51:52.049Z,9.40
2017-07-14T07:54:21.107Z,11.10
2017-07-14T07:56:50.201Z,11.07
2017-07-14T07:59:19.281Z,10.07
2017-07-14T08:01:48.321Z,12.83
2017-07-14T08:04:17.404Z,10.80
2017-07-14T08:06:46.460Z,14.33
2017-07-14T08:09:15.528Z,12.00
2017-07-14T08:11:44.584Z,8.73
2017-07-14T08:14:13.684Z,10.73
2017-07-14T08:16:42.728Z,8.20
2017-07-14T08:19:11.816Z,10.13
2017-07-14T08:21:40.883Z,9.00
2017-07-14T08:24:10.009Z,8.57
2017-07-14T08:26:39.098Z,11.27
2017-07-14T08:29:08.341Z,9.80
2017-07-14T08:31:37.433Z,10.03
2017-07-14T08:34:06.488Z,8.60
2017-07-14T08:36:35.560Z,9.20
2017-07-14T08:39:04.751Z,8.83
2017-07-14T08:41:33.793Z,5.93
2017-07-14T08:44:02.904Z,5.40
2017-07-14T08:46:31.933Z,6.93
2017-07-14T08:49:00.985Z,6.13
2017-07-14T08:51:30.058Z,8.23
2017-07-14T08:53:59.126Z,6.63
2017-07-14T08:56:28.190Z,10.53
2017-07-14T08:58:57.239Z,9.10
2017-07-14T09:01:26.342Z,8.40
2017-07-14T09:03:55.392Z,6.30
2017-07-14T09:06:24.455Z,7.33
2017-07-14T09:08:53.530Z,9.50
2017-07-14T09:11:22.567Z,7.87
2017-07-14T09:13:51.627Z,8.70
2017-07-14T09:16:20.720Z,8.90
2017-07-14T09:18:49.801Z,7.37
2017-07-14T09:21:18.861Z,9.53
2017-07-14T09:23:47.921Z,8.47
2017-07-14T09:26:16.976Z,8.43
2017-07-14T09:28:46.035Z,8.60
2017-07-14T09:31:15.092Z,7.80
2017-07-14T09:33:44.159Z,7.63
2017-07-14T09:36:13.219Z,9.37
2017-07-14T09:38:42.301Z,9.40
2017-07-14T09:41:11.396Z,11.80
2017-07-14T09:43:40.456Z,7.63
2017-07-14T09:46:09.524Z,9.70
2017-07-14T09:48:38.573Z,11.70
2017-07-14T09:51:07.618Z,9.47
2017-07-14T09:53:36.680Z,7.80
2017-07-14T09:56:05.777Z,6.03
2017-07-14T09:58:34.847Z,6.90
2017-07-14T10:01:03.983Z,6.43
2017-07-14T10:03:33.131Z,8.33
2017-07-14T10:06:02.215Z,6.50
2017-07-14T10:08:31.257Z,7.30
2017-07-14T10:11:00.345Z,7.50
2017-07-14T10:13:29.397Z,7.07
2017-07-14T10:15:58.437Z,6.57
2017-07-14T10:18:27.499Z,5.40
2017-07-14T10:20:56.548Z,11.50
2017-07-14T10:23:25.604Z,7.80
2017-07-14T10:25:54.682Z,4.23
2017-07-14T10:28:23.737Z,4.93
2017-07-14T10:30:52.815Z,6.83
2017-07-14T10:33:21.893Z,9.23
2017-07-14T10:35:50.933Z,8.67
2017-07-14T10:38:20.002Z,5.77
2017-07-14T10:40:49.060Z,6.30
2017-07-14T10:43:18.164Z,5.70
2017-07-14T10:45:47.215Z,4.53
2017-07-14T10:48:16.291Z,6.80
2017-07-14T10:50:45.365Z,5.30
2017-07-14T10:53:14.468Z,3.80
2017-07-14T10:55:43.496Z,5.30
2017-07-14T10:58:12.575Z,4.10
2017-07-14T11:00:41.673Z,6.87
2017-07-14T11:03:10.740Z,6.17
2017-07-14T11:05:39.786Z,3.30
2017-07-14T11:08:09.039Z,6.80
2017-07-14T11:10:38.114Z,5.13
2017-07-14T11:13:07.172Z,8.90
2017-07-14T11:15:36.273Z,4.60
2017-07-14T11:18:05.355Z,3.97
2017-07-14T11:20:34.416Z,10.00
2017-07-14T11:23:03.533Z,5.50
2017-07-14T11:25:32.567Z,12.40
2017-07-14T11:28:01.648Z,4.60
2017-07-14T11:30:30.706Z,5.37
2017-07-14T11:32:59.960Z,4.10
2017-07-14T11:35:29.045Z,5.90
2017-07-14T11:37:58.316Z,4.90
2017-07-14T11:40:27.376Z,6.53
2017-07-14T11:42:56.444Z,5.37
2017-07-14T11:45:25.744Z,6.40
2017-07-14T11:47:54.788Z,3.90
2017-07-14T11:50:23.888Z,4.00
2017-07-14T11:52:52.977Z,5.53
2017-07-14T11:55:22.048Z,4.27
2017-07-14T11:57:51.088Z,4.97
2017-07-14T12:00:20.173Z,5.57
2017-07-14T12:02:49.229Z,4.13
2017-07-14T12:05:18.333Z,4.37
2017-07-14T12:07:47.390Z,4.93
2017-07-14T12:10:16.459Z,4.00
2017-07-14T12:12:45.533Z,6.60
2017-07-14T12:15:14.585Z,6.30
2017-07-14T12:17:43.639Z,4.43
2017-07-14T12:20:12.699Z,7.50
2017-07-14T12:22:41.752Z,7.03
2017-07-14T12:25:10.872Z,3.80
2017-07-14T12:27:39.960Z,4.00
2017-07-14T12:30:09.033Z,4.90
2017-07-14T12:32:38.081Z,7.60
2017-07-14T12:35:07.169Z,6.07
2017-07-14T12:37:36.237Z,4.70
2017-07-14T12:40:05.314Z,3.90
2017-07-14T12:42:34.355Z,6.20
2017-07-14T12:45:03.521Z,4.13
2017-07-14T12:47:32.587Z,5.80
2017-07-14T12:50:01.651Z,8.33
2017-07-14T12:52:31.201Z,4.90
2017-07-14T12:55:00.264Z,6.70
2017-07-14T12:57:29.335Z,6.07
2017-07-14T12:59:58.388Z,6.57
2017-07-14T13:02:27.469Z,5.30
2017-07-14T13:04:56.679Z,7.27
2017-07-14T13:07:25.740Z,6.73
2017-07-14T13:09:54.835Z,4.83
2017-07-14T13:12:23.871Z,7.70
2017-07-14T13:14:52.930Z,6.97
2017-07-14T13:17:22.023Z,8.80
2017-07-14T13:19:51.072Z,5.53
2017-07-14T13:22:20.112Z,7.60
2017-07-14T13:24:49.231Z,8.50
2017-07-14T13:27:18.273Z,8.00
2017-07-14T13:29:47.369Z,7.83
2017-07-14T13:32:16.457Z,5.60
2017-07-14T13:34:45.497Z,8.40
2017-07-14T13:37:14.615Z,7.40
2017-07-14T13:39:43.679Z,6.37
2017-07-14T13:42:12.949Z,4.77
2017-07-14T13:44:42.018Z,8.60
2017-07-14T13:47:11.105Z,11.17
2017-07-14T13:49:40.154Z,6.90
2017-07-14T13:52:09.189Z,5.13
2017-07-14T13:54:38.248Z,9.17
2017-07-14T13:57:07.325Z,6.27
2017-07-14T13:59:36.377Z,5.67
2017-07-14T14:02:05.506Z,16.47
2017-07-14T14:04:34.596Z,10.30
2017-07-14T14:07:03.659Z,11.80
2017-07-14T14:09:32.741Z,12.40
2017-07-14T14:12:01.841Z,12.60
2017-07-14T14:14:30.947Z,13.33
2017-07-14T14:16:59.998Z,15.07
2017-07-14T14:19:29.100Z,15.10
2017-07-14T14:21:58.165Z,13.67
2017-07-14T14:24:27.242Z,15.97
2017-07-14T14:26:56.334Z,14.80
2017-07-14T14:29:25.692Z,17.83
2017-07-14T14:31:54.757Z,14.40
2017-07-14T14:34:23.821Z,15.27
2017-07-14T14:36:52.881Z,17.00
2017-07-14T14:39:21.976Z,16.37
2017-07-14T14:41:51.058Z,17.70
2017-07-14T14:44:20.122Z,14.83
2017-07-14T14:46:49.196Z,15.70
2017-07-14T14:49:18.264Z,24.97
2017-07-14T14:51:47.379Z,16.00
2017-07-14T14:54:16.486Z,16.73
2017-07-14T14:56:45.561Z,17.67
2017-07-14T14:59:14.656Z,18.60
2017-07-14T15:01:43.718Z,18.80
2017-07-14T15:04:12.818Z,13.90
2017-07-14T15:06:41.893Z,13.57
2017-07-14T15:09:10.957Z,11.00
2017-07-14T15:11:40.038Z,11.93
2017-07-14T15:14:09.131Z,7.77
2017-07-14T15:16:38.200Z,6.80
2017-07-14T15:19:07.262Z,7.83
2017-07-14T15:21:36.363Z,6.77
2017-07-14T15:24:05.406Z,8.37
2017-07-14T15:26:34.472Z,7.07
2017-07-14T15:29:03.553Z,6.80
2017-07-14T15:31:32.634Z,7.50
2017-07-14T15:34:01.761Z,7.13
2017-07-14T15:36:30.840Z,7.77
2017-07-14T15:38:59.887Z,7.90
2017-07-14T15:41:28.984Z,7.40
2017-07-14T15:43:58.097Z,7.33
2017-07-14T15:46:27.187Z,8.77
2017-07-14T15:48:56.233Z,8.80
2017-07-14T15:51:25.288Z,9.00
2017-07-14T15:53:54.373Z,9.47
2017-07-14T15:56:23.435Z,9.27
2017-07-14T15:58:52.491Z,10.57
2017-07-14T16:01:21.549Z,12.17
2017-07-14T16:03:50.616Z,16.60
2017-07-14T16:06:19.698Z,13.43
2017-07-14T16:08:48.847Z,12.43
2017-07-14T16:11:17.952Z,13.80
2017-07-14T16:13:47.018Z,15.33
2017-07-14T16:16:16.141Z,13.57
2017-07-14T16:18:45.218Z,14.73
2017-07-14T16:21:14.397Z,12.80
2017-07-14T16:23:43.468Z,12.80
2017-07-14T16:26:12.556Z,11.70
2017-07-14T16:28:41.616Z,11.50
2017-07-14T16:31:10.700Z,9.40
2017-07-14T16:33:39.797Z,6.13
2017-07-14T16:36:08.952Z,6.57
2017-07-14T16:38:38.028Z,5.87
2017-07-14T16:41:07.108Z,7.67
2017-07-14T16:43:36.173Z,9.40
2017-07-14T16:46:05.256Z,7.23
2017-07-14T16:48:34.302Z,10.43
2017-07-14T16:51:03.386Z,6.73
2017-07-14T16:53:32.508Z,7.87
2017-07-14T16:56:01.548Z,8.00
2017-07-14T16:58:30.616Z,7.90
2017-07-14T17:00:59.679Z,6.90
2017-07-14T17:03:28.709Z,7.00
2017-07-14T17:05:57.801Z,7.43
2017-07-14T17:08:26.894Z,7.80
2017-07-14T17:10:55.970Z,7.33
2017-07-14T17:13:25.044Z,7.40
2017-07-14T17:15:54.115Z,8.20
2017-07-14T17:18:23.197Z,6.07
2017-07-14T17:20:52.257Z,5.67
2017-07-14T17:23:21.316Z,4.67
2017-07-14T17:25:50.380Z,3.60
2017-07-14T17:28:19.649Z,4.57
2017-07-14T17:30:48.720Z,3.70
2017-07-14T17:33:17.783Z,5.43
2017-07-14T17:35:47.867Z,7.17
2017-07-14T17:38:16.945Z,6.10
2017-07-14T17:40:46.004Z,8.07
2017-07-14T17:43:15.125Z,8.50
2017-07-14T17:45:44.200Z,10.90
2017-07-14T17:48:13.294Z,9.60
2017-07-14T17:50:42.369Z,7.00
2017-07-14T17:53:11.447Z,5.80
2017-07-14T17:55:40.529Z,13.57
2017-07-14T17:58:09.660Z,9.10
2017-07-14T18:00:38.737Z,6.87
2017-07-14T18:03:07.793Z,5.87
2017-07-14T18:05:36.856Z,6.40
2017-07-14T18:08:05.949Z,11.27
2017-07-14T18:10:35.019Z,11.27
2017-07-14T18:13:04.164Z,9.53
2017-07-14T18:15:33.234Z,16.07
2017-07-14T18:18:02.307Z,9.13
2017-07-14T18:20:31.386Z,8.80
2017-07-14T18:23:00.480Z,8.17
2017-07-14T18:25:29.542Z,20.80
2017-07-14T18:27:58.624Z,9.57
2017-07-14T18:30:27.957Z,8.53
2017-07-14T18:32:57.013Z,9.50
2017-07-14T18:35:26.117Z,10.47
2017-07-14T18:37:55.929Z,6.57
2017-07-14T18:40:25.024Z,5.43
2017-07-14T18:42:54.122Z,9.13
2017-07-14T18:45:23.216Z,5.80
2017-07-14T18:47:52.278Z,6.80
2017-07-14T18:50:21.354Z,5.67
2017-07-14T18:52:50.433Z,5.10
2017-07-14T18:55:19.717Z,3.47
2017-07-14T18:57:49.045Z,4.07
2017-07-14T19:00:18.157Z,7.27
2017-07-14T19:02:47.313Z,4.20
2017-07-14T19:05:16.387Z,3.63
2017-07-14T19:07:45.443Z,3.23
2017-07-14T19:10:14.559Z,8.63
2017-07-14T19:12:44.601Z,6.10
2017-07-14T19:15:13.681Z,4.80
2017-07-14T19:17:44.599Z,4.20
2017-07-14T19:20:15.538Z,3.20
2017-07-14T19:22:44.599Z,5.20
2017-07-14T19:25:13.718Z,7.43
2017-07-14T19:27:42.749Z,3.47
2017-07-14T19:30:12.005Z,3.97
2017-07-14T19:32:41.067Z,8.90
2017-07-14T19:35:10.513Z,4.23
2017-07-14T19:37:39.893Z,2.50
2017-07-14T19:40:08.994Z,2.27
2017-07-14T19:42:38.042Z,5.93
2017-07-14T19:45:07.107Z,2.87
2017-07-14T19:47:36.223Z,3.13
2017-07-14T19:50:05.448Z,4.43
2017-07-14T19:52:34.536Z,4.90
2017-07-14T19:55:03.588Z,5.00
2017-07-14T19:57:32.647Z,4.40
2017-07-14T20:00:01.765Z,3.43
2017-07-14T20:02:31.638Z,7.00
2017-07-14T20:05:00.693Z,4.63
2017-07-14T20:07:30.562Z,5.87
2017-07-14T20:09:59.674Z,3.20
2017-07-14T20:12:28.715Z,3.30
2017-07-14T20:14:58.535Z,4.90
2017-07-14T20:17:28.469Z,4.47
2017-07-14T20:19:57.541Z,9.10
2017-07-14T20:22:26.587Z,6.30
2017-07-14T20:24:55.677Z,2.87
2017-07-14T20:27:24.746Z,8.60
2017-07-14T20:29:53.817Z,9.53
2017-07-14T20:32:23.636Z,8.67
2017-07-14T20:34:52.717Z,8.10
2017-07-14T20:37:21.757Z,8.57
2017-07-14T20:39:50.844Z,6.70
2017-07-14T20:42:19.917Z,5.37
2017-07-14T20:44:48.993Z,3.10
2017-07-14T20:47:18.074Z,5.10
2017-07-14T20:49:47.141Z,9.00
2017-07-14T20:52:16.484Z,3.50
2017-07-14T20:54:45.586Z,5.50
2017-07-14T20:57:14.958Z,2.83
2017-07-14T20:59:44.036Z,3.00
2017-07-14T21:02:13.372Z,4.53
2017-07-14T21:04:42.449Z,3.00
2017-07-14T21:07:11.531Z,5.10
2017-07-14T21:09:40.584Z,5.43
2017-07-14T21:12:09.654Z,6.17
2017-07-14T21:14:38.747Z,3.83
2017-07-14T21:17:08.139Z,6.03
2017-07-14T21:19:37.220Z,7.63
2017-07-14T21:22:06.337Z,5.13
2017-07-14T21:24:35.407Z,5.00
2017-07-14T21:27:04.520Z,5.10
2017-07-14T21:29:33.545Z,4.03
2017-07-14T21:32:03.441Z,3.67
2017-07-14T21:34:32.515Z,3.30
2017-07-14T21:37:01.552Z,6.47
2017-07-14T21:39:31.420Z,2.07
2017-07-14T21:42:00.484Z,4.00
2017-07-14T21:44:29.569Z,3.73
2017-07-14T21:46:59.398Z,1.70
2017-07-14T21:49:28.457Z,3.93
2017-07-14T21:51:57.605Z,3.73
2017-07-14T21:54:28.636Z,5.10
2017-07-14T21:56:57.775Z,3.80
2017-07-14T21:59:26.829Z,5.00
2017-07-14T22:01:56.081Z,7.40
2017-07-14T22:04:25.922Z,6.03
2017-07-14T22:06:54.984Z,3.23
2017-07-14T22:09:24.849Z,4.50
2017-07-14T22:11:53.940Z,5.57
2017-07-14T22:14:22.996Z,5.33
2017-07-14T22:16:52.840Z,3.27
2017-07-14T22:19:21.876Z,4.60
2017-07-14T22:21:50.924Z,5.10
2017-07-14T22:24:20.004Z,4.80
2017-07-14T22:26:49.095Z,8.03
2017-07-14T22:29:18.928Z,3.43
2017-07-14T22:31:47.965Z,2.53
2017-07-14T22:34:17.908Z,7.03
2017-07-14T22:36:46.949Z,5.60
2017-07-14T22:39:16.028Z,6.20
2017-07-14T22:41:45.092Z,4.93
2017-07-14T22:44:14.914Z,5.87
2017-07-14T22:46:43.996Z,7.27
2017-07-14T22:49:14.224Z,8.63
2017-07-14T22:51:43.308Z,6.30
2017-07-14T22:54:12.375Z,4.43
2017-07-14T22:56:41.439Z,6.30
2017-07-14T22:59:10.554Z,3.87
2017-07-14T23:01:39.629Z,3.33
2017-07-14T23:04:09.201Z,4.80
2017-07-14T23:06:38.236Z,8.77
2017-07-14T23:09:07.320Z,4.57
2017-07-14T23:11:36.382Z,3.53
2017-07-14T23:14:05.448Z,4.30
2017-07-14T23:16:34.537Z,6.60
2017-07-14T23:19:03.572Z,5.20
2017-07-14T23:21:32.644Z,5.30
2017-07-14T23:24:01.738Z,5.90
2017-07-14T23:26:30.796Z,7.77
2017-07-14T23:28:59.893Z,4.73
2017-07-14T23:31:28.954Z,5.97
2017-07-14T23:33:58.833Z,5.27
2017-07-14T23:36:27.905Z,12.10
2017-07-14T23:38:56.957Z,6.80
2017-07-14T23:41:26.053Z,4.60
2017-07-14T23:43:55.870Z,4.90
2017-07-14T23:46:25.727Z,8.30
2017-07-14T23:48:54.802Z,6.00
2017-07-14T23:51:26.841Z,5.73
2017-07-14T23:53:56.791Z,4.57
2017-07-14T23:56:25.845Z,10.73
2017-07-14T23:58:55.697Z,7.27
